createdAt,value
2022-11-16T00:01:15.271Z,94769.06
2022-11-16T00:03:43.092Z,94740.00
2022-11-16T00:06:11.513Z,94764.59
2022-11-16T00:08:43.873Z,94759.28
2022-11-16T00:11:18.979Z,94763.53
2022-11-16T00:13:46.031Z,94728.78
2022-11-16T00:16:15.838Z,94764.59
2022-11-16T00:18:43.555Z,94749.38
2022-11-16T00:21:10.412Z,94728.44
2022-11-16T00:23:38.807Z,94752.53
2022-11-16T00:26:07.530Z,94721.00
2022-11-16T00:28:34.717Z,94755.75
2022-11-16T00:31:04.265Z,94752.06
2022-11-16T00:33:31.530Z,94756.72
2022-11-16T00:36:00.631Z,94747.84
2022-11-16T00:38:27.403Z,94721.41
2022-11-16T00:40:54.133Z,94747.00
2022-11-16T00:43:20.899Z,94743.34
2022-11-16T00:45:47.779Z,94728.09
2022-11-16T00:48:14.431Z,94738.00
2022-11-16T00:50:41.325Z,94741.72
2022-11-16T00:53:12.190Z,94745.09
2022-11-16T00:55:39.391Z,94745.94
2022-11-16T00:58:06.404Z,94721.53
2022-11-16T01:00:33.365Z,94732.28
2022-11-16T01:03:00.125Z,94703.47
2022-11-16T01:05:26.828Z,94726.44
2022-11-16T01:07:53.767Z,94727.06
2022-11-16T01:10:22.638Z,94702.13
2022-11-16T01:12:51.038Z,94710.75
2022-11-16T01:15:20.207Z,94707.34
2022-11-16T01:17:46.775Z,94699.56
2022-11-16T01:20:16.517Z,94694.06
2022-11-16T01:22:43.719Z,94709.22
2022-11-16T01:25:12.519Z,94713.34
2022-11-16T01:27:40.072Z,94712.44
2022-11-16T01:30:10.327Z,94708.66
2022-11-16T01:32:37.589Z,94685.91
2022-11-16T01:35:05.921Z,94702.47
2022-11-16T01:37:33.318Z,94675.06
2022-11-16T01:39:59.956Z,94678.94
2022-11-16T01:42:30.047Z,94699.63
2022-11-16T01:45:00.493Z,94676.44
2022-11-16T01:47:27.889Z,94688.38
2022-11-16T01:50:00.921Z,94693.66
2022-11-16T01:52:32.925Z,94706.41
2022-11-16T01:54:59.895Z,94698.13
2022-11-16T01:57:34.129Z,94691.00
2022-11-16T02:00:03.841Z,94690.41
2022-11-16T02:02:30.762Z,94668.38
2022-11-16T02:04:59.937Z,94678.22
2022-11-16T02:08:03.210Z,94687.41
2022-11-16T02:11:13.113Z,94657.50
2022-11-16T02:13:51.649Z,94675.56
2022-11-16T02:16:21.140Z,94670.38
2022-11-16T02:18:53.135Z,94676.84
2022-11-16T02:21:44.230Z,94663.13
2022-11-16T02:24:30.020Z,94661.25
2022-11-16T02:27:32.286Z,94657.13
2022-11-16T02:29:59.319Z,94664.19
2022-11-16T02:32:37.567Z,94645.19
2022-11-16T02:35:18.510Z,94670.91
2022-11-16T02:37:54.767Z,94665.06
2022-11-16T02:40:26.230Z,94678.03
2022-11-16T02:43:34.583Z,94669.44
2022-11-16T02:46:05.477Z,94660.06
2022-11-16T02:48:38.041Z,94671.19
2022-11-16T02:51:06.534Z,94674.97
2022-11-16T02:53:40.427Z,94677.66
2022-11-16T02:56:07.323Z,94666.84
2022-11-16T02:58:34.477Z,94651.63
2022-11-16T03:01:30.086Z,94677.91
2022-11-16T03:04:11.540Z,94665.53
2022-11-16T03:06:41.617Z,94659.16
2022-11-16T03:09:18.533Z,94657.22
2022-11-16T03:12:01.697Z,94628.03
2022-11-16T03:14:34.230Z,94665.16
2022-11-16T03:17:03.868Z,94662.50
2022-11-16T03:19:41.748Z,94650.00
2022-11-16T03:22:19.958Z,94636.94
2022-11-16T03:24:47.506Z,94656.53
2022-11-16T03:27:51.879Z,94657.00
2022-11-16T03:30:24.014Z,94649.00
2022-11-16T03:33:15.641Z,94658.16
2022-11-16T03:35:47.003Z,94657.59
2022-11-16T03:38:16.064Z,94646.56
2022-11-16T03:40:46.192Z,94643.19
2022-11-16T03:43:15.651Z,94645.88
2022-11-16T03:45:43.534Z,94628.69
2022-11-16T03:48:11.613Z,94641.19
2022-11-16T03:50:39.091Z,94629.13
2022-11-16T03:53:05.729Z,94614.31
2022-11-16T03:55:32.373Z,94615.25
2022-11-16T03:57:59.033Z,94628.91
2022-11-16T04:00:25.675Z,94654.97
2022-11-16T04:02:52.245Z,94634.63
2022-11-16T04:05:37.398Z,94616.38
2022-11-16T04:08:22.491Z,94603.50
2022-11-16T04:11:07.729Z,94629.00
2022-11-16T04:13:53.928Z,94612.75
2022-11-16T04:16:39.050Z,94621.34
2022-11-16T04:19:24.320Z,94617.50
2022-11-16T04:22:14.493Z,94617.06
2022-11-16T04:24:46.826Z,94618.53
2022-11-16T04:27:32.932Z,94613.28
2022-11-16T04:30:01.354Z,94595.44
2022-11-16T04:32:47.096Z,94585.88
2022-11-16T04:35:32.715Z,94601.38
2022-11-16T04:38:00.080Z,94610.84
2022-11-16T04:40:30.613Z,94607.78
2022-11-16T04:42:59.719Z,94607.56
2022-11-16T04:45:46.852Z,94604.25
2022-11-16T04:48:15.403Z,94575.78
2022-11-16T04:50:42.454Z,94605.56
2022-11-16T04:53:09.898Z,94612.44
2022-11-16T04:55:36.547Z,94581.88
2022-11-16T04:58:03.554Z,94576.59
2022-11-16T05:00:30.330Z,94596.09
2022-11-16T05:03:01.299Z,94602.72
2022-11-16T05:05:29.086Z,94594.03
2022-11-16T05:07:55.797Z,94598.28
2022-11-16T05:10:22.598Z,94588.94
2022-11-16T05:12:49.389Z,94578.22
2022-11-16T05:15:17.870Z,94550.03
2022-11-16T05:17:44.435Z,94561.59
2022-11-16T05:20:30.233Z,94586.25
2022-11-16T05:22:58.470Z,94584.31
2022-11-16T05:25:25.437Z,94588.88
2022-11-16T05:27:52.265Z,94573.19
2022-11-16T05:30:19.164Z,94595.63
2022-11-16T05:32:46.019Z,94582.16
2022-11-16T05:35:12.939Z,94572.78
2022-11-16T05:37:40.034Z,94578.63
2022-11-16T05:40:07.718Z,94583.75
2022-11-16T05:42:34.867Z,94592.69
2022-11-16T05:45:01.584Z,94589.56
2022-11-16T05:47:28.303Z,94572.22
2022-11-16T05:49:54.950Z,94569.19
2022-11-16T05:52:21.588Z,94591.06
2022-11-16T05:54:48.194Z,94590.22
2022-11-16T05:57:15.527Z,94594.28
2022-11-16T05:59:42.719Z,94593.84
2022-11-16T06:02:09.544Z,94594.13
2022-11-16T06:04:36.174Z,94597.41
2022-11-16T06:07:02.953Z,94591.69
2022-11-16T06:09:29.830Z,94594.38
2022-11-16T06:11:56.549Z,94576.69
2022-11-16T06:14:23.227Z,94591.09
2022-11-16T06:16:49.972Z,94591.09
2022-11-16T06:19:16.681Z,94592.59
2022-11-16T06:21:43.316Z,94580.38
2022-11-16T06:24:09.989Z,94578.97
2022-11-16T06:26:37.188Z,94564.31
2022-11-16T06:29:04.267Z,94591.22
2022-11-16T06:31:31.214Z,94591.50
2022-11-16T06:33:57.827Z,94597.47
2022-11-16T06:36:24.421Z,94601.56
2022-11-16T06:38:51.343Z,94601.41
2022-11-16T06:41:18.331Z,94594.50
2022-11-16T06:43:45.179Z,94586.56
2022-11-16T06:46:11.889Z,94590.13
2022-11-16T06:48:38.655Z,94593.38
2022-11-16T06:51:05.460Z,94570.97
2022-11-16T06:53:32.449Z,94587.44
2022-11-16T06:56:04.172Z,94584.66
2022-11-16T06:58:32.320Z,94583.16
2022-11-16T07:01:09.138Z,94588.78
2022-11-16T07:03:35.818Z,94578.50
2022-11-16T07:06:11.409Z,94574.31
2022-11-16T07:08:38.882Z,94579.28
2022-11-16T07:11:07.250Z,94583.72
2022-11-16T07:13:35.387Z,94570.19
2022-11-16T07:16:04.552Z,94581.31
2022-11-16T07:18:39.808Z,94576.00
2022-11-16T07:21:12.168Z,94564.34
2022-11-16T07:23:39.358Z,94569.44
2022-11-16T07:26:08.206Z,94561.88
2022-11-16T07:28:35.829Z,94560.59
2022-11-16T07:31:04.773Z,94564.56
2022-11-16T07:33:32.129Z,94568.34
2022-11-16T07:36:11.253Z,94571.63
2022-11-16T07:38:38.386Z,94557.03
2022-11-16T07:41:10.356Z,94556.72
2022-11-16T07:43:37.195Z,94564.00
2022-11-16T07:49:07.035Z,94556.91
2022-11-16T07:51:36.985Z,94535.88
2022-11-16T07:54:03.675Z,94551.38
2022-11-16T07:56:30.524Z,94528.47
2022-11-16T07:58:57.314Z,94552.06
2022-11-16T08:01:24.041Z,94539.19
2022-11-16T08:03:54.286Z,94546.94
2022-11-16T08:06:27.136Z,94520.19
2022-11-16T08:08:58.562Z,94521.31
2022-11-16T08:11:26.602Z,94519.94
2022-11-16T08:13:53.323Z,94531.06
2022-11-16T08:16:22.270Z,94520.09
2022-11-16T08:18:49.301Z,94525.25
2022-11-16T08:21:18.473Z,94516.13
2022-11-16T08:23:45.905Z,94512.41
2022-11-16T08:26:16.480Z,94517.22
2022-11-16T08:28:44.895Z,94514.75
2022-11-16T08:31:17.684Z,94498.34
2022-11-16T08:33:45.102Z,94512.69
2022-11-16T08:36:17.224Z,94514.22
2022-11-16T08:38:46.323Z,94488.03
2022-11-16T08:41:13.590Z,94508.84
2022-11-16T08:43:43.590Z,94511.84
2022-11-16T08:46:11.611Z,94452.97
2022-11-16T08:48:38.921Z,94507.09
2022-11-16T08:51:25.238Z,94487.47
2022-11-16T08:53:59.668Z,94483.72
2022-11-16T08:56:27.575Z,94492.47
2022-11-16T08:58:58.395Z,94499.41
2022-11-16T09:01:27.921Z,94503.78
2022-11-16T09:03:54.896Z,94486.44
2022-11-16T09:06:23.321Z,94499.41
2022-11-16T09:08:51.083Z,94488.69
2022-11-16T09:11:19.975Z,94486.75
2022-11-16T09:16:32.225Z,94479.16
2022-11-16T09:18:58.886Z,94484.84
2022-11-16T09:21:30.350Z,94455.72
2022-11-16T09:23:58.464Z,94449.78
2022-11-16T09:26:26.379Z,94448.44
2022-11-16T09:28:58.504Z,94454.75
2022-11-16T09:31:29.513Z,94446.31
2022-11-16T09:33:58.918Z,94421.47
2022-11-16T09:36:27.573Z,94430.88
2022-11-16T09:39:19.422Z,94362.38
2022-11-16T09:41:41.710Z,94433.22
2022-11-16T09:44:24.168Z,94424.31
2022-11-16T09:46:54.264Z,94423.19
2022-11-16T09:49:31.012Z,94402.13
2022-11-16T09:54:51.597Z,94398.22
2022-11-16T09:57:26.111Z,94403.00
2022-11-16T09:59:59.219Z,94377.94
2022-11-16T10:02:37.515Z,94376.06
2022-11-16T10:05:28.080Z,94375.31
2022-11-16T10:08:06.539Z,94378.03
2022-11-16T10:10:50.956Z,94365.56
2022-11-16T10:13:35.740Z,94328.19
2022-11-16T10:16:28.809Z,94352.44
2022-11-16T10:19:22.576Z,94343.56
2022-11-16T10:22:02.274Z,94339.69
2022-11-16T10:24:54.824Z,94344.09
2022-11-16T10:27:22.267Z,94336.22
2022-11-16T10:30:27.382Z,94333.97
2022-11-16T10:33:00.514Z,94320.59
2022-11-16T10:35:27.159Z,94320.34
2022-11-16T10:37:56.853Z,94311.88
2022-11-16T10:40:30.579Z,94335.88
2022-11-16T10:43:10.582Z,94300.72
2022-11-16T10:45:58.394Z,94317.00
2022-11-16T10:48:48.868Z,94294.16
2022-11-16T10:51:16.012Z,94284.78
2022-11-16T10:53:46.346Z,94300.28
2022-11-16T10:56:37.691Z,94302.28
2022-11-16T10:59:09.587Z,94256.44
2022-11-16T11:01:39.532Z,94298.59
2022-11-16T11:04:19.373Z,94291.03
2022-11-16T11:06:48.929Z,94281.44
2022-11-16T11:09:24.675Z,94286.88
2022-11-16T11:12:19.777Z,94260.03
2022-11-16T11:15:08.119Z,94271.16
2022-11-16T11:17:36.231Z,94266.94
2022-11-16T11:20:18.380Z,94267.91
2022-11-16T11:23:04.638Z,94264.53
2022-11-16T11:25:48.554Z,94255.81
2022-11-16T11:28:34.716Z,94256.00
2022-11-16T11:31:09.927Z,94235.97
2022-11-16T11:33:39.764Z,94167.75
2022-11-16T11:36:18.738Z,94202.34
2022-11-16T11:39:12.942Z,94237.13
2022-11-16T11:41:45.035Z,94215.09
2022-11-16T11:44:19.841Z,94221.09
2022-11-16T11:49:55.518Z,94221.34
2022-11-16T11:52:40.649Z,94201.31
2022-11-16T11:55:08.847Z,94193.88
2022-11-16T11:57:44.135Z,94199.84
2022-11-16T12:00:15.651Z,94201.69
2022-11-16T12:02:56.389Z,94208.91
2022-11-16T12:05:47.574Z,94204.03
2022-11-16T12:08:24.061Z,94202.47
2022-11-16T12:11:00.574Z,94197.03
2022-11-16T12:14:02.530Z,94199.25
2022-11-16T12:16:40.189Z,94188.78
2022-11-16T12:19:31.702Z,94188.28
2022-11-16T12:22:14.894Z,94189.97
2022-11-16T12:25:07.464Z,94186.31
2022-11-16T12:27:52.489Z,94182.25
2022-11-16T12:30:22.326Z,94168.75
2022-11-16T12:33:13.915Z,94171.19
2022-11-16T12:35:59.309Z,94173.50
2022-11-16T12:38:40.146Z,94172.66
2022-11-16T12:41:38.440Z,94173.94
2022-11-16T12:44:11.173Z,94173.72
2022-11-16T12:46:56.954Z,94163.78
2022-11-16T12:49:45.586Z,94158.56
2022-11-16T12:52:39.530Z,94154.94
2022-11-16T12:55:26.435Z,94145.38
2022-11-16T12:58:12.257Z,94150.72
2022-11-16T13:00:49.617Z,94142.53
2022-11-16T13:03:29.673Z,94098.44
2022-11-16T13:06:02.190Z,94125.34
2022-11-16T13:08:47.236Z,94138.59
2022-11-16T13:11:25.894Z,94138.88
2022-11-16T13:13:58.164Z,94084.13
2022-11-16T13:16:26.326Z,94110.78
2022-11-16T13:18:55.218Z,94123.63
2022-11-16T13:21:26.898Z,94116.41
2022-11-16T13:24:18.567Z,94118.91
2022-11-16T13:27:03.109Z,94074.06
2022-11-16T13:29:50.475Z,94117.97
2022-11-16T13:32:58.988Z,94115.53
2022-11-16T13:35:26.462Z,94109.03
2022-11-16T13:37:53.257Z,94106.56
2022-11-16T13:40:29.089Z,94093.63
2022-11-16T13:43:27.477Z,94123.75
2022-11-16T13:45:58.980Z,94125.44
2022-11-16T13:48:25.566Z,94127.19
2022-11-16T13:50:55.994Z,94097.31
2022-11-16T13:56:48.931Z,94119.97
2022-11-16T13:59:16.922Z,94091.50
2022-11-16T14:02:01.166Z,94117.44
2022-11-16T14:04:53.272Z,94111.47
2022-11-16T14:07:46.513Z,94116.41
2022-11-16T14:10:35.028Z,94112.44
2022-11-16T14:13:06.362Z,94109.22
2022-11-16T14:15:35.894Z,94095.78
2022-11-16T14:18:34.386Z,94112.22
2022-11-16T14:21:27.471Z,94106.16
2022-11-16T14:24:11.182Z,94046.81
2022-11-16T14:27:13.799Z,94110.59
2022-11-16T14:29:56.640Z,94105.13
2022-11-16T14:32:32.039Z,94101.16
2022-11-16T14:35:00.771Z,94081.72
2022-11-16T14:37:32.565Z,94084.94
2022-11-16T14:40:05.618Z,94050.50
2022-11-16T14:42:54.386Z,94095.97
2022-11-16T14:45:29.629Z,94081.81
2022-11-16T14:48:02.773Z,94098.91
2022-11-16T14:50:30.429Z,94094.75
2022-11-16T14:53:02.809Z,94091.28
2022-11-16T14:55:29.832Z,94084.38
2022-11-16T14:58:17.982Z,94103.88
2022-11-16T15:00:58.250Z,94089.81
2022-11-16T15:03:30.315Z,94076.38
2022-11-16T15:06:00.314Z,94073.81
2022-11-16T15:08:33.590Z,94092.03
2022-11-16T15:11:00.928Z,94051.66
2022-11-16T15:13:27.680Z,94076.34
2022-11-16T15:16:15.932Z,94079.09
2022-11-16T15:18:56.568Z,94081.59
2022-11-16T15:21:24.536Z,94085.03
2022-11-16T15:24:15.631Z,94079.31
2022-11-16T15:26:38.703Z,94083.56
2022-11-16T15:29:05.801Z,94076.63
2022-11-16T15:31:35.116Z,94078.13
2022-11-16T15:34:01.724Z,94076.69
2022-11-16T15:36:41.220Z,94073.91
2022-11-16T15:39:23.677Z,94077.59
2022-11-16T15:41:51.273Z,94084.84
2022-11-16T15:44:21.109Z,94092.03
2022-11-16T15:46:52.041Z,94075.13
2022-11-16T15:49:36.964Z,94072.00
2022-11-16T15:52:04.137Z,94046.22
2022-11-16T15:54:51.781Z,94076.59
2022-11-16T15:57:20.163Z,94085.53
2022-11-16T15:59:54.575Z,94078.47
2022-11-16T16:02:25.007Z,94068.34
2022-11-16T16:04:51.927Z,94092.28
2022-11-16T16:07:37.307Z,94083.34
2022-11-16T16:10:19.036Z,94087.84
2022-11-16T16:13:23.930Z,94083.81
2022-11-16T16:16:26.482Z,94044.00
2022-11-16T16:18:55.773Z,94069.38
2022-11-16T16:21:22.896Z,94045.63
2022-11-16T16:23:52.697Z,94078.41
2022-11-16T16:26:21.706Z,94079.81
2022-11-16T16:28:48.486Z,94102.53
2022-11-16T16:31:18.545Z,94071.25
2022-11-16T16:33:45.587Z,94091.41
2022-11-16T16:36:13.595Z,94021.59
2022-11-16T16:38:40.468Z,94043.31
2022-11-16T16:41:07.733Z,94094.72
2022-11-16T16:43:35.459Z,94034.88
2022-11-16T16:46:04.217Z,94085.88
2022-11-16T16:48:31.144Z,94064.00
2022-11-16T16:50:58.054Z,94080.91
2022-11-16T16:53:24.968Z,94053.41
2022-11-16T16:55:52.021Z,94083.72
2022-11-16T16:58:19.240Z,94063.13
2022-11-16T17:00:46.371Z,94073.69
2022-11-16T17:03:13.107Z,94037.25
2022-11-16T17:05:39.856Z,94085.56
2022-11-16T17:08:07.791Z,94053.31
2022-11-16T17:10:34.485Z,94051.00
2022-11-16T17:13:03.218Z,94030.47
2022-11-16T17:15:30.360Z,94027.75
2022-11-16T17:17:58.961Z,94074.09
2022-11-16T17:20:25.781Z,94035.66
2022-11-16T17:22:52.786Z,93985.03
2022-11-16T17:25:20.758Z,94043.81
2022-11-16T17:27:47.551Z,94036.06
2022-11-16T17:30:15.055Z,94049.31
2022-11-16T17:32:41.885Z,94014.63
2022-11-16T17:35:09.276Z,94057.22
2022-11-16T17:37:36.170Z,94029.88
2022-11-16T17:40:03.320Z,94054.97
2022-11-16T17:42:32.596Z,94059.19
2022-11-16T17:44:59.446Z,94046.66
2022-11-16T17:47:26.123Z,94063.41
2022-11-16T17:49:52.997Z,94011.78
2022-11-16T17:52:19.878Z,94055.84
2022-11-16T17:54:46.439Z,94070.00
2022-11-16T17:57:13.216Z,94061.53
2022-11-16T17:59:39.894Z,94057.81
2022-11-16T18:02:07.008Z,94032.44
2022-11-16T18:04:33.986Z,94027.63
2022-11-16T18:07:01.284Z,94034.03
2022-11-16T18:09:27.918Z,94033.06
2022-11-16T18:11:54.844Z,94025.25
2022-11-16T18:14:22.418Z,94021.84
2022-11-16T18:16:49.131Z,94034.44
2022-11-16T18:19:18.093Z,94030.34
2022-11-16T18:21:45.613Z,94026.63
2022-11-16T18:24:13.158Z,94017.50
2022-11-16T18:26:41.097Z,94030.00
2022-11-16T18:29:09.357Z,93996.09
2022-11-16T18:31:35.922Z,94010.97
2022-11-16T18:34:02.990Z,94022.72
2022-11-16T18:36:29.901Z,94037.69
2022-11-16T18:38:56.533Z,94025.53
2022-11-16T18:41:55.096Z,94037.16
2022-11-16T18:44:22.437Z,94031.97
2022-11-16T18:46:49.170Z,94023.81
2022-11-16T18:49:16.082Z,94039.25
2022-11-16T18:51:42.738Z,94035.25
2022-11-16T18:54:09.704Z,94041.09
2022-11-16T18:56:37.068Z,94031.38
2022-11-16T18:59:04.058Z,94022.19
2022-11-16T19:01:31.031Z,93990.31
2022-11-16T19:03:57.954Z,94010.47
2022-11-16T19:06:24.732Z,94029.00
2022-11-16T19:08:59.315Z,94015.66
2022-11-16T19:11:28.429Z,94030.50
2022-11-16T19:13:58.585Z,94027.03
2022-11-16T19:16:25.589Z,93989.69
2022-11-16T19:18:53.004Z,94039.38
2022-11-16T19:21:19.925Z,94022.91
2022-11-16T19:23:49.002Z,94035.03
2022-11-16T19:26:17.586Z,94022.41
2022-11-16T19:28:46.169Z,94026.41
2022-11-16T19:31:33.157Z,94033.91
2022-11-16T19:34:03.313Z,94030.50
2022-11-16T19:36:31.842Z,94041.44
2022-11-16T19:38:58.768Z,94046.53
2022-11-16T19:41:26.564Z,94035.72
2022-11-16T19:43:59.086Z,93986.88
2022-11-16T19:46:28.049Z,94023.81
2022-11-16T19:48:55.834Z,94039.59
2022-11-16T19:51:31.640Z,94025.66
2022-11-16T19:54:00.094Z,93984.38
2022-11-16T19:56:27.619Z,94009.69
2022-11-16T19:58:54.708Z,94032.59
2022-11-16T20:01:28.122Z,94045.25
2022-11-16T20:03:57.470Z,94027.16
2022-11-16T20:06:29.330Z,94031.44
2022-11-16T20:09:00.566Z,93973.38
2022-11-16T20:11:36.117Z,93997.22
2022-11-16T20:14:05.396Z,93998.59
2022-11-16T20:16:38.695Z,94005.34
2022-11-16T20:19:07.618Z,93994.59
2022-11-16T20:21:39.707Z,94012.31
2022-11-16T20:24:09.004Z,94007.38
2022-11-16T20:26:37.687Z,93997.03
2022-11-16T20:29:04.574Z,93989.22
2022-11-16T20:31:33.075Z,93989.00
2022-11-16T20:34:02.493Z,93986.00
2022-11-16T20:36:31.514Z,93979.19
2022-11-16T20:38:59.481Z,93980.91
2022-11-16T20:41:28.298Z,93966.22
2022-11-16T20:43:57.049Z,93963.63
2022-11-16T20:46:28.939Z,93976.03
2022-11-16T20:48:57.290Z,93975.56
2022-11-16T20:51:24.145Z,93977.94
2022-11-16T20:53:52.091Z,93978.53
2022-11-16T20:56:20.434Z,93982.53
2022-11-16T20:58:48.037Z,93961.97
2022-11-16T21:01:29.040Z,93956.72
2022-11-16T21:03:57.523Z,93962.44
2022-11-16T21:06:24.642Z,93974.38
2022-11-16T21:08:52.181Z,93943.06
2022-11-16T21:11:51.615Z,93951.34
2022-11-16T21:14:19.989Z,93955.06
2022-11-16T21:16:46.770Z,93954.19
2022-11-16T21:19:13.901Z,93966.34
2022-11-16T21:21:41.372Z,93952.50
2022-11-16T21:24:09.136Z,93952.72
2022-11-16T21:26:37.322Z,93947.06
2022-11-16T21:29:04.794Z,93950.78
2022-11-16T21:31:34.302Z,93944.81
2022-11-16T21:34:01.635Z,93953.50
2022-11-16T21:36:30.759Z,93947.06
2022-11-16T21:39:00.613Z,93916.50
2022-11-16T21:41:27.865Z,93911.84
2022-11-16T21:43:55.352Z,93935.78
2022-11-16T21:46:27.340Z,93942.75
2022-11-16T21:48:56.465Z,93944.19
2022-11-16T21:51:26.080Z,93943.84
2022-11-16T21:53:52.968Z,93947.41
2022-11-16T21:56:22.214Z,93911.59
2022-11-16T21:58:50.601Z,93935.09
2022-11-16T22:01:17.373Z,93942.63
2022-11-16T22:03:44.860Z,93935.78
2022-11-16T22:06:33.410Z,93924.78
2022-11-16T22:09:00.651Z,93910.13
2022-11-16T22:11:27.306Z,93936.50
2022-11-16T22:13:53.863Z,93928.56
2022-11-16T22:16:23.339Z,93910.91
2022-11-16T22:18:50.284Z,93931.28
2022-11-16T22:21:17.206Z,93932.34
2022-11-16T22:23:43.863Z,93924.66
2022-11-16T22:26:12.905Z,93913.28
2022-11-16T22:28:39.956Z,93905.78
2022-11-16T22:31:09.924Z,93908.78
2022-11-16T22:33:37.655Z,93899.84
2022-11-16T22:36:05.422Z,93871.16
2022-11-16T22:38:33.474Z,93900.31
2022-11-16T22:41:00.205Z,93902.91
2022-11-16T22:43:29.778Z,93910.50
2022-11-16T22:46:05.307Z,93883.66
2022-11-16T22:48:34.762Z,93878.16
2022-11-16T22:51:05.957Z,93872.38
2022-11-16T22:53:33.145Z,93903.91
2022-11-16T22:56:07.966Z,93896.56
2022-11-16T22:58:35.626Z,93896.63
2022-11-16T23:01:02.904Z,93906.06
2022-11-16T23:03:31.142Z,93894.75
2022-11-16T23:05:58.055Z,93859.47
2022-11-16T23:08:25.070Z,93889.22
2022-11-16T23:11:26.752Z,93888.41
2022-11-16T23:14:13.033Z,93872.09
2022-11-16T23:16:40.510Z,93890.19
2022-11-16T23:19:27.117Z,93835.97
2022-11-16T23:22:13.451Z,93882.34
2022-11-16T23:24:59.111Z,93811.38
2022-11-16T23:27:29.512Z,93887.06
2022-11-16T23:30:01.685Z,93870.75
2022-11-16T23:32:29.672Z,93878.38
2022-11-16T23:34:56.393Z,93863.59
2022-11-16T23:37:23.528Z,93886.25
2022-11-16T23:39:50.173Z,93865.31
2022-11-16T23:42:35.610Z,93875.09
2022-11-16T23:45:02.846Z,93870.97
2022-11-16T23:47:29.589Z,93858.13
2022-11-16T23:49:56.283Z,93851.78
2022-11-16T23:52:23.164Z,93878.91
2022-11-16T23:54:49.912Z,93782.06
2022-11-16T23:57:16.741Z,93837.31
2022-11-16T23:59:43.735Z,93841.84
